Terminal Aerodrome Forecast
Issued by NWS Nashville, TN

Home | Current Version | Previous Version | Text Only | Print | Product List | Glossary On
Versions: 1 2 3 4 5 6 7 8 9 10 11 12 13 14 15 16 17 18 19 20 21 22 23
000
FTUS44 KOHX 310000 AAA
TAFCSV
TAF AMD
KCSV 310047Z 3101/3124 18004KT P6SM VCTS SCT040CB OVC090
      TEMPO 3101/3105 2SM TSRA BR SCT020CB BKN040 OVC090
     FM310600 18003KT 4SM BR VCSH SCT010 BKN030 OVC090
      TEMPO 3109/3112 2SM BR BKN010 BKN030 OVC090
     FM311300 20006KT 4SM BR VCTS BKN025CB OVC050=

USA.gov is the U.S. government's official web portal to all federal, state and local government web resources and services.